createdAt,value
2019-03-24T00:02:29.192Z,82.34
2019-03-24T00:04:59.620Z,82.18
2019-03-24T00:07:29.905Z,82.36
2019-03-24T00:10:00.351Z,82.57
2019-03-24T00:12:30.672Z,82.57
2019-03-24T00:15:00.962Z,82.73
2019-03-24T00:17:31.406Z,82.74
2019-03-24T00:20:01.714Z,82.88
2019-03-24T00:22:32.061Z,83.01
2019-03-24T00:25:02.310Z,83.16
2019-03-24T00:27:32.700Z,83.07
2019-03-24T00:30:03.108Z,83.15
2019-03-24T00:32:33.494Z,83.25
2019-03-24T00:35:03.778Z,83.28
2019-03-24T00:37:34.056Z,83.57
2019-03-24T00:40:04.416Z,83.44
2019-03-24T00:42:34.732Z,83.42
2019-03-24T00:45:05.380Z,83.57
2019-03-24T00:47:35.700Z,83.71
2019-03-24T00:50:06.021Z,83.92
2019-03-24T00:52:36.356Z,84.01
2019-03-24T00:55:06.796Z,84.11
2019-03-24T00:57:37.737Z,84.13
2019-03-24T01:00:08.050Z,84.12
2019-03-24T01:02:38.372Z,84.14
2019-03-24T01:05:08.714Z,84.18
2019-03-24T01:07:39.020Z,84.42
2019-03-24T01:10:09.341Z,84.69
2019-03-24T01:12:39.664Z,84.72
2019-03-24T01:15:10.014Z,84.84
2019-03-24T01:17:40.318Z,84.97
2019-03-24T01:20:10.764Z,85.02
2019-03-24T01:22:41.173Z,84.97
2019-03-24T01:25:11.443Z,85.06
2019-03-24T01:27:41.690Z,85.08
2019-03-24T01:30:12.180Z,85.12
2019-03-24T01:32:42.469Z,85.10
2019-03-24T01:35:12.780Z,85.26
2019-03-24T01:37:43.232Z,85.34
2019-03-24T01:40:13.566Z,85.45
2019-03-24T01:42:43.986Z,85.62
2019-03-24T01:45:14.326Z,85.40
2019-03-24T01:47:44.731Z,85.29
2019-03-24T01:50:15.045Z,85.29
2019-03-24T01:52:45.288Z,85.29
2019-03-24T01:55:15.718Z,85.35
2019-03-24T01:57:46.025Z,85.53
2019-03-24T02:00:16.318Z,85.59
2019-03-24T02:02:46.588Z,85.92
2019-03-24T02:05:17.043Z,85.75
2019-03-24T02:07:47.190Z,85.80
2019-03-24T02:10:17.513Z,85.81
2019-03-24T02:12:47.795Z,85.99
2019-03-24T02:15:18.120Z,85.97
2019-03-24T02:17:48.534Z,85.92
2019-03-24T02:20:18.790Z,85.98
2019-03-24T02:22:49.166Z,85.94
2019-03-24T02:25:19.458Z,85.87
2019-03-24T02:27:49.840Z,86.11
2019-03-24T02:30:20.139Z,85.94
2019-03-24T02:32:50.490Z,85.97
2019-03-24T02:35:20.807Z,85.95
2019-03-24T02:37:51.053Z,86.14
2019-03-24T02:40:21.349Z,86.53
2019-03-24T02:42:51.650Z,86.32
2019-03-24T02:45:22.123Z,86.37
2019-03-24T02:47:52.421Z,86.44
2019-03-24T02:50:22.778Z,86.12
2019-03-24T02:52:53.085Z,86.11
2019-03-24T02:55:23.424Z,86.43
2019-03-24T02:57:53.838Z,86.50
2019-03-24T03:00:24.134Z,86.51
2019-03-24T03:02:54.420Z,86.40
2019-03-24T03:05:24.725Z,86.38
2019-03-24T03:07:55.021Z,86.47
2019-03-24T03:10:25.382Z,86.55
2019-03-24T03:12:55.670Z,86.45
2019-03-24T03:15:26.174Z,86.55
2019-03-24T03:17:56.475Z,86.26
2019-03-24T03:20:26.778Z,86.42
2019-03-24T03:22:57.066Z,86.70
2019-03-24T03:25:27.421Z,86.56
2019-03-24T03:27:57.719Z,86.71
2019-03-24T03:30:28.035Z,86.57
2019-03-24T03:32:58.316Z,86.83
2019-03-24T03:35:28.715Z,86.68
2019-03-24T03:37:59.053Z,86.37
2019-03-24T03:40:29.309Z,86.36
2019-03-24T03:42:59.599Z,86.57
2019-03-24T03:45:30.406Z,86.37
2019-03-24T03:48:00.773Z,86.33
2019-03-24T03:50:31.062Z,87.09
2019-03-24T03:53:01.428Z,87.08
2019-03-24T03:55:31.720Z,86.99
2019-03-24T03:58:02.095Z,86.91
2019-03-24T04:00:36.078Z,86.87
2019-03-24T04:03:06.396Z,86.77
2019-03-24T04:05:36.686Z,86.94
2019-03-24T04:08:07.062Z,86.72
2019-03-24T04:10:37.363Z,86.91
2019-03-24T04:13:07.709Z,86.37
2019-03-24T04:15:37.989Z,86.57
2019-03-24T04:18:08.343Z,86.45
2019-03-24T04:20:38.606Z,86.24
2019-03-24T04:23:08.992Z,86.05
2019-03-24T04:25:39.309Z,85.65
2019-03-24T04:28:09.639Z,85.80
2019-03-24T04:30:39.949Z,85.95
2019-03-24T04:33:10.289Z,85.80
2019-03-24T04:35:40.605Z,85.89
2019-03-24T04:38:10.955Z,85.77
2019-03-24T04:40:41.238Z,85.87
2019-03-24T04:43:11.607Z,85.93
2019-03-24T04:45:41.907Z,85.53
2019-03-24T04:48:12.238Z,85.71
2019-03-24T04:50:42.575Z,85.90
2019-03-24T04:53:12.891Z,85.98
2019-03-24T04:55:43.179Z,86.02
2019-03-24T04:58:13.589Z,85.94
2019-03-24T05:00:43.822Z,86.08
2019-03-24T05:03:14.084Z,86.12
2019-03-24T05:05:44.384Z,86.16
2019-03-24T05:08:15.048Z,86.16
2019-03-24T05:10:45.360Z,86.02
2019-03-24T05:13:15.703Z,86.30
2019-03-24T05:15:46.002Z,86.59
2019-03-24T05:18:16.349Z,86.36
2019-03-24T05:20:46.616Z,86.27
2019-03-24T05:23:16.895Z,86.52
2019-03-24T05:25:47.200Z,86.49
2019-03-24T05:28:17.557Z,86.56
2019-03-24T05:30:47.828Z,86.57
2019-03-24T05:33:18.194Z,86.33
2019-03-24T05:35:48.462Z,86.50
2019-03-24T05:38:18.774Z,86.44
2019-03-24T05:40:49.094Z,86.36
2019-03-24T05:43:19.405Z,86.39
2019-03-24T05:45:49.691Z,86.28
2019-03-24T05:48:19.985Z,86.58
2019-03-24T05:50:50.263Z,86.59
2019-03-24T05:53:20.690Z,86.86
2019-03-24T05:55:50.992Z,86.38
2019-03-24T05:58:21.358Z,86.17
2019-03-24T06:00:51.643Z,86.40
2019-03-24T06:03:22.000Z,86.14
2019-03-24T06:05:52.313Z,85.43
2019-03-24T06:08:22.637Z,85.76
2019-03-24T06:10:52.958Z,86.11
2019-03-24T06:13:23.250Z,85.55
2019-03-24T06:15:53.564Z,86.03
2019-03-24T06:18:23.948Z,85.89
2019-03-24T06:20:54.372Z,85.31
2019-03-24T06:23:24.670Z,85.12
2019-03-24T06:25:55.007Z,84.18
2019-03-24T06:28:25.291Z,83.14
2019-03-24T06:30:55.617Z,82.37
2019-03-24T06:33:25.976Z,83.50
2019-03-24T06:35:56.309Z,83.84
2019-03-24T06:38:26.736Z,84.03
2019-03-24T06:40:57.072Z,83.14
2019-03-24T06:43:27.485Z,82.68
2019-03-24T06:45:57.796Z,83.15
2019-03-24T06:48:28.239Z,83.26
2019-03-24T06:50:58.570Z,82.31
2019-03-24T06:53:28.990Z,81.40
2019-03-24T06:55:59.309Z,80.50
2019-03-24T06:58:30.105Z,82.12
2019-03-24T07:01:00.438Z,82.39
2019-03-24T07:03:32.699Z,81.71
2019-03-24T07:06:01.119Z,81.91
2019-03-24T07:08:31.444Z,82.36
2019-03-24T07:11:01.783Z,82.12
2019-03-24T07:13:32.104Z,82.21
2019-03-24T07:16:02.503Z,81.33
2019-03-24T07:18:32.942Z,81.54
2019-03-24T07:21:03.291Z,81.03
2019-03-24T07:23:33.603Z,81.34
2019-03-24T07:26:03.878Z,81.71
2019-03-24T07:28:34.200Z,81.71
2019-03-24T07:31:04.606Z,81.37
2019-03-24T07:33:34.918Z,78.39
2019-03-24T07:36:05.369Z,79.05
2019-03-24T07:38:35.759Z,79.41
2019-03-24T07:41:06.069Z,78.71
2019-03-24T07:43:36.534Z,78.83
2019-03-24T07:46:06.865Z,78.07
2019-03-24T07:48:37.209Z,77.42
2019-03-24T07:51:07.494Z,78.35
2019-03-24T07:53:37.788Z,78.18
2019-03-24T07:56:08.162Z,77.03
2019-03-24T07:58:38.587Z,77.59
2019-03-24T08:01:08.894Z,76.95
2019-03-24T08:03:39.210Z,77.10
2019-03-24T08:06:09.560Z,77.43
2019-03-24T08:08:44.274Z,76.30
2019-03-24T08:11:10.419Z,76.30
2019-03-24T08:13:40.745Z,77.16
2019-03-24T08:16:11.065Z,75.51
2019-03-24T08:18:41.460Z,75.51
2019-03-24T08:21:11.814Z,75.36
2019-03-24T08:23:42.160Z,75.10
2019-03-24T08:26:12.436Z,75.12
2019-03-24T08:28:42.697Z,74.29
2019-03-24T08:31:13.014Z,74.40
2019-03-24T08:33:43.443Z,74.40
2019-03-24T08:36:15.707Z,74.41
2019-03-24T08:38:44.122Z,73.52
2019-03-24T08:41:14.394Z,72.23
2019-03-24T08:43:44.708Z,69.90
2019-03-24T08:46:14.999Z,69.49
2019-03-24T08:48:45.299Z,68.99
2019-03-24T08:51:15.585Z,67.77
2019-03-24T08:53:45.933Z,67.77
2019-03-24T08:56:16.244Z,70.00
2019-03-24T08:58:46.591Z,70.43
2019-03-24T09:01:17.093Z,70.00
2019-03-24T09:03:47.366Z,68.97
2019-03-24T09:06:17.703Z,67.46
2019-03-24T09:08:49.069Z,66.96
2019-03-24T09:11:18.376Z,66.08
2019-03-24T09:13:48.779Z,65.05
2019-03-24T09:16:19.029Z,66.09
2019-03-24T09:18:52.906Z,65.49
2019-03-24T09:21:19.773Z,65.45
2019-03-24T09:23:49.986Z,64.15
2019-03-24T09:26:20.349Z,66.22
2019-03-24T09:28:50.691Z,64.62
2019-03-24T09:31:20.966Z,64.91
2019-03-24T09:33:51.272Z,65.67
2019-03-24T09:36:21.644Z,65.21
2019-03-24T09:38:51.941Z,65.00
2019-03-24T09:41:22.306Z,64.64
2019-03-24T09:43:52.653Z,64.92
2019-03-24T09:46:22.958Z,64.47
2019-03-24T09:49:02.693Z,60.15
2019-03-24T09:51:23.602Z,62.51
2019-03-24T09:53:53.915Z,61.09
2019-03-24T09:56:24.206Z,60.65
2019-03-24T09:58:54.481Z,60.09
2019-03-24T10:01:24.925Z,57.16
2019-03-24T10:03:55.238Z,55.55
2019-03-24T10:06:25.553Z,52.03
2019-03-24T10:08:55.894Z,49.19
2019-03-24T10:11:26.202Z,48.20
2019-03-24T10:13:56.478Z,46.14
2019-03-24T10:16:26.852Z,44.35
2019-03-24T10:18:57.186Z,42.98
2019-03-24T10:21:27.470Z,41.59
2019-03-24T10:23:57.776Z,41.94
2019-03-24T10:26:28.068Z,42.88
2019-03-24T10:28:58.387Z,43.03
2019-03-24T10:31:28.696Z,41.38
2019-03-24T10:33:59.056Z,41.92
2019-03-24T10:36:29.343Z,41.32
2019-03-24T10:38:59.684Z,40.34
2019-03-24T10:41:30.000Z,40.73
2019-03-24T10:44:00.338Z,39.07
2019-03-24T10:46:30.663Z,38.91
2019-03-24T10:49:00.990Z,38.99
2019-03-24T10:51:31.272Z,39.83
2019-03-24T10:54:01.578Z,41.53
2019-03-24T10:56:31.941Z,42.10
2019-03-24T10:59:02.380Z,43.05
2019-03-24T11:01:32.697Z,43.20
2019-03-24T11:04:03.048Z,43.02
2019-03-24T11:06:33.340Z,42.99
2019-03-24T11:09:03.838Z,44.62
2019-03-24T11:11:34.197Z,45.34
2019-03-24T11:14:04.546Z,46.38
2019-03-24T11:16:34.853Z,44.78
2019-03-24T11:19:05.170Z,46.79
2019-03-24T11:21:35.504Z,44.28
2019-03-24T11:24:05.787Z,42.83
2019-03-24T11:26:36.080Z,42.49
2019-03-24T11:29:06.388Z,39.89
2019-03-24T11:31:36.698Z,39.54
2019-03-24T11:34:07.073Z,39.31
2019-03-24T11:36:37.364Z,38.69
2019-03-24T11:39:08.742Z,38.54
2019-03-24T11:41:39.014Z,38.46
2019-03-24T11:44:09.356Z,39.93
2019-03-24T11:46:39.676Z,40.00
2019-03-24T11:49:17.925Z,39.56
2019-03-24T11:51:48.308Z,40.74
2019-03-24T11:54:18.649Z,41.84
2019-03-24T11:56:48.944Z,42.40
2019-03-24T11:59:19.273Z,43.56
2019-03-24T12:01:49.527Z,44.78
2019-03-24T12:04:19.873Z,44.89
2019-03-24T12:06:50.156Z,45.63
2019-03-24T12:09:20.502Z,45.67
2019-03-24T12:11:50.816Z,46.45
2019-03-24T12:14:21.137Z,46.71
2019-03-24T12:16:51.467Z,45.81
2019-03-24T12:19:21.817Z,46.45
2019-03-24T12:21:52.097Z,46.58
2019-03-24T12:24:22.745Z,46.32
2019-03-24T12:26:53.268Z,46.96
2019-03-24T12:29:23.636Z,45.34
2019-03-24T12:31:53.928Z,44.49
2019-03-24T12:34:24.249Z,44.88
2019-03-24T12:36:54.632Z,44.14
2019-03-24T12:39:24.979Z,43.61
2019-03-24T12:41:55.459Z,42.88
2019-03-24T12:44:25.816Z,42.82
2019-03-24T12:46:56.125Z,42.64
2019-03-24T12:49:26.532Z,41.93
2019-03-24T12:51:56.822Z,42.42
2019-03-24T12:54:27.163Z,42.10
2019-03-24T12:56:57.472Z,43.07
2019-03-24T12:59:27.759Z,43.07
2019-03-24T13:01:58.135Z,44.10
2019-03-24T13:04:28.436Z,46.23
2019-03-24T13:06:58.726Z,46.66
2019-03-24T13:09:29.037Z,46.48
2019-03-24T13:11:59.326Z,45.49
2019-03-24T13:14:30.823Z,46.08
2019-03-24T13:16:59.978Z,44.55
2019-03-24T13:19:30.327Z,43.27
2019-03-24T13:22:00.638Z,43.70
2019-03-24T13:24:30.972Z,42.55
2019-03-24T13:27:01.292Z,42.51
2019-03-24T13:29:31.734Z,41.48
2019-03-24T13:32:02.068Z,41.48
2019-03-24T13:34:32.378Z,40.97
2019-03-24T13:37:04.285Z,39.97
2019-03-24T13:39:32.966Z,39.97
2019-03-24T13:42:03.272Z,38.89
2019-03-24T13:44:33.543Z,39.17
2019-03-24T13:47:03.856Z,39.68
2019-03-24T13:49:34.122Z,39.45
2019-03-24T13:52:04.551Z,39.30
2019-03-24T13:54:34.816Z,39.73
2019-03-24T13:57:05.125Z,38.13
2019-03-24T13:59:35.416Z,37.97
2019-03-24T14:02:05.698Z,35.36
2019-03-24T14:04:36.050Z,33.79
2019-03-24T14:07:06.362Z,33.44
2019-03-24T14:09:36.626Z,32.07
2019-03-24T14:12:07.040Z,31.27
2019-03-24T14:14:37.342Z,31.76
2019-03-24T14:17:07.692Z,32.27
2019-03-24T14:19:38.010Z,31.81
2019-03-24T14:22:08.348Z,30.93
2019-03-24T14:24:38.751Z,30.75
2019-03-24T14:27:09.050Z,30.24
2019-03-24T14:29:39.326Z,28.89
2019-03-24T14:32:09.662Z,29.57
2019-03-24T14:34:58.815Z,29.61
2019-03-24T14:37:29.227Z,28.82
2019-03-24T14:39:59.519Z,29.97
2019-03-24T14:42:29.803Z,29.77
2019-03-24T14:45:00.112Z,29.49
2019-03-24T14:47:30.478Z,30.72
2019-03-24T14:50:00.840Z,31.92
2019-03-24T14:52:31.176Z,31.77
2019-03-24T14:55:01.518Z,30.48
2019-03-24T14:57:31.893Z,31.58
2019-03-24T15:00:02.250Z,30.73
2019-03-24T15:02:32.610Z,30.62
2019-03-24T15:05:02.989Z,30.71
2019-03-24T15:07:33.326Z,29.83
2019-03-24T15:10:03.658Z,31.24
2019-03-24T15:12:33.980Z,30.95
2019-03-24T15:15:04.371Z,32.28
2019-03-24T15:17:34.798Z,32.82
2019-03-24T15:20:05.506Z,33.48
2019-03-24T15:22:35.867Z,31.90
2019-03-24T15:25:06.336Z,32.09
2019-03-24T15:27:36.618Z,30.77
2019-03-24T15:30:07.256Z,30.24
2019-03-24T15:32:37.774Z,30.40
2019-03-24T15:35:08.348Z,28.96
2019-03-24T15:37:38.683Z,29.34
2019-03-24T15:40:09.104Z,29.47
2019-03-24T15:42:39.422Z,28.12
2019-03-24T15:45:09.820Z,28.19
2019-03-24T15:47:40.190Z,26.25
2019-03-24T15:50:10.506Z,26.73
2019-03-24T15:52:40.820Z,26.15
2019-03-24T15:55:11.094Z,27.35
2019-03-24T15:57:41.400Z,28.58
2019-03-24T16:00:11.812Z,28.70
2019-03-24T16:02:42.139Z,28.57
2019-03-24T16:05:12.414Z,30.14
2019-03-24T16:07:42.726Z,30.41
2019-03-24T16:10:13.008Z,30.93
2019-03-24T16:12:43.295Z,31.12
2019-03-24T16:15:13.714Z,31.76
2019-03-24T16:17:44.033Z,32.25
2019-03-24T16:20:17.874Z,33.11
2019-03-24T16:22:48.200Z,34.37
2019-03-24T16:25:18.466Z,34.02
2019-03-24T16:27:48.815Z,34.54
2019-03-24T16:30:19.174Z,34.66
2019-03-24T16:32:49.539Z,34.57
2019-03-24T16:35:23.370Z,35.13
2019-03-24T16:37:53.661Z,34.80
2019-03-24T16:40:23.963Z,34.50
2019-03-24T16:42:54.272Z,32.50
2019-03-24T16:45:25.100Z,34.47
2019-03-24T16:47:56.138Z,31.84
2019-03-24T16:50:26.414Z,31.32
2019-03-24T16:52:56.825Z,30.69
2019-03-24T16:55:27.110Z,29.97
2019-03-24T16:57:57.434Z,29.47
2019-03-24T17:00:27.741Z,30.68
2019-03-24T17:02:58.034Z,31.25
2019-03-24T17:05:28.343Z,32.08
2019-03-24T17:07:58.689Z,33.17
2019-03-24T17:10:28.964Z,34.58
2019-03-24T17:12:59.357Z,35.54
2019-03-24T17:15:29.718Z,36.28
2019-03-24T17:18:00.067Z,36.84
2019-03-24T17:20:30.391Z,37.27
2019-03-24T17:23:00.773Z,37.77
2019-03-24T17:25:31.085Z,38.14
2019-03-24T17:28:01.412Z,38.55
2019-03-24T17:30:31.708Z,38.88
2019-03-24T17:33:01.997Z,39.01
2019-03-24T17:35:32.296Z,39.57
2019-03-24T17:38:02.587Z,39.91
2019-03-24T17:40:39.077Z,40.36
2019-03-24T17:43:06.992Z,40.58
2019-03-24T17:45:37.291Z,40.99
2019-03-24T17:48:07.599Z,40.99
2019-03-24T17:50:37.886Z,41.28
2019-03-24T17:53:08.233Z,41.67
2019-03-24T17:55:38.530Z,41.96
2019-03-24T17:58:08.828Z,41.96
2019-03-24T18:00:44.534Z,42.81
2019-03-24T18:03:14.874Z,42.81
2019-03-24T18:05:45.176Z,43.08
2019-03-24T18:08:15.562Z,43.54
2019-03-24T18:10:45.832Z,43.54
2019-03-24T18:13:16.198Z,43.82
2019-03-24T18:15:46.528Z,44.34
2019-03-24T18:18:17.026Z,44.69
2019-03-24T18:20:47.396Z,44.97
2019-03-24T18:23:17.612Z,45.21
2019-03-24T18:25:47.904Z,45.31
2019-03-24T18:28:18.256Z,45.77
2019-03-24T18:30:48.534Z,45.92
2019-03-24T18:33:18.907Z,45.92
2019-03-24T18:35:49.297Z,45.87
2019-03-24T18:38:19.901Z,45.98
2019-03-24T18:40:50.270Z,46.21
2019-03-24T18:43:20.588Z,46.39
2019-03-24T18:45:50.982Z,46.67
2019-03-24T18:48:21.266Z,46.96
2019-03-24T18:50:51.611Z,46.96
2019-03-24T18:53:22.002Z,47.75
2019-03-24T18:55:52.354Z,48.13
2019-03-24T18:58:22.646Z,48.54
2019-03-24T19:00:53.004Z,48.67
2019-03-24T19:03:23.282Z,48.67
2019-03-24T19:05:53.673Z,48.26
2019-03-24T19:08:23.980Z,48.81
2019-03-24T19:10:54.411Z,48.81
2019-03-24T19:13:24.798Z,49.41
2019-03-24T19:15:55.238Z,49.66
2019-03-24T19:18:25.660Z,49.69
2019-03-24T19:20:56.070Z,49.69
2019-03-24T19:23:26.568Z,50.15
2019-03-24T19:25:57.100Z,50.80
2019-03-24T19:28:27.681Z,50.96
2019-03-24T19:30:58.057Z,51.06
2019-03-24T19:33:29.618Z,51.25
2019-03-24T19:35:58.936Z,51.33
2019-03-24T19:38:29.345Z,51.21
2019-03-24T19:40:59.666Z,51.90
2019-03-24T19:43:30.006Z,51.71
2019-03-24T19:46:00.355Z,51.71
2019-03-24T19:48:30.640Z,51.79
2019-03-24T19:51:00.989Z,51.96
2019-03-24T19:53:31.354Z,52.11
2019-03-24T19:56:01.672Z,51.86
2019-03-24T19:58:31.998Z,52.18
2019-03-24T20:01:02.310Z,52.18
2019-03-24T20:03:32.729Z,52.61
2019-03-24T20:06:03.685Z,52.68
2019-03-24T20:08:33.965Z,53.00
2019-03-24T20:11:04.350Z,53.29
2019-03-24T20:13:34.651Z,53.31
2019-03-24T20:16:05.076Z,53.52
2019-03-24T20:18:35.414Z,53.52
2019-03-24T20:21:05.757Z,53.81
2019-03-24T20:23:38.173Z,54.12
2019-03-24T20:26:08.482Z,54.12
2019-03-24T20:28:38.796Z,54.22
2019-03-24T20:31:09.098Z,54.60
2019-03-24T20:33:47.541Z,54.60
2019-03-24T20:36:14.680Z,54.72
2019-03-24T20:38:45.025Z,54.86
2019-03-24T20:41:15.343Z,56.11
2019-03-24T20:43:45.648Z,56.17
2019-03-24T20:46:16.011Z,55.48
2019-03-24T20:48:46.400Z,55.41
2019-03-24T20:51:16.711Z,55.41
2019-03-24T20:53:47.012Z,55.36
2019-03-24T20:56:17.316Z,55.63
2019-03-24T20:58:47.640Z,56.07
2019-03-24T21:01:18.889Z,55.87
2019-03-24T21:03:48.362Z,56.00
2019-03-24T21:06:18.813Z,56.41
2019-03-24T21:08:49.143Z,56.56
2019-03-24T21:11:19.464Z,56.90
2019-03-24T21:13:49.767Z,57.35
2019-03-24T21:16:20.271Z,57.61
2019-03-24T21:18:51.148Z,57.39
2019-03-24T21:21:20.947Z,58.09
2019-03-24T21:23:51.232Z,58.48
2019-03-24T21:26:21.560Z,58.48
2019-03-24T21:28:51.866Z,59.18
2019-03-24T21:31:22.253Z,60.36
2019-03-24T21:33:52.648Z,60.36
2019-03-24T21:36:22.978Z,60.52
2019-03-24T21:38:53.302Z,61.01
2019-03-24T21:41:23.608Z,61.15
2019-03-24T21:43:53.983Z,60.94
2019-03-24T21:46:24.304Z,61.50
2019-03-24T21:48:54.654Z,61.63
2019-03-24T21:51:24.997Z,61.57
2019-03-24T21:53:55.341Z,61.24
2019-03-24T21:56:25.744Z,61.38
2019-03-24T21:58:56.135Z,61.38
2019-03-24T22:01:26.469Z,61.67
2019-03-24T22:03:56.824Z,61.42
2019-03-24T22:06:27.204Z,61.42
2019-03-24T22:08:57.580Z,61.42
2019-03-24T22:11:27.995Z,61.59
2019-03-24T22:13:58.317Z,61.36
2019-03-24T22:16:28.727Z,61.62
2019-03-24T22:18:59.051Z,61.83
2019-03-24T22:21:29.376Z,61.74
2019-03-24T22:23:59.802Z,61.16
2019-03-24T22:26:30.084Z,61.16
2019-03-24T22:29:00.427Z,61.46
2019-03-24T22:31:30.737Z,61.01
2019-03-24T22:34:01.067Z,61.28
2019-03-24T22:36:31.407Z,61.43
2019-03-24T22:39:01.737Z,61.58
2019-03-24T22:41:32.152Z,61.82
2019-03-24T22:44:02.553Z,62.12
2019-03-24T22:46:32.857Z,62.12
2019-03-24T22:49:03.182Z,62.47
2019-03-24T22:51:33.583Z,62.68
2019-03-24T22:54:03.927Z,62.56
2019-03-24T22:56:34.236Z,62.77
2019-03-24T22:59:04.639Z,62.74
2019-03-24T23:01:35.008Z,62.95
2019-03-24T23:04:05.353Z,63.00
2019-03-24T23:06:35.657Z,62.76
2019-03-24T23:09:08.290Z,62.74
2019-03-24T23:11:38.621Z,62.64
2019-03-24T23:14:08.938Z,62.89
2019-03-24T23:16:39.219Z,62.91
2019-03-24T23:19:09.628Z,63.16
2019-03-24T23:21:39.933Z,63.58
2019-03-24T23:24:15.275Z,63.60
2019-03-24T23:26:40.713Z,64.08
2019-03-24T23:29:11.038Z,64.08
2019-03-24T23:31:41.345Z,64.01
2019-03-24T23:34:11.691Z,64.00
2019-03-24T23:36:42.021Z,64.00
2019-03-24T23:39:12.407Z,64.16
2019-03-24T23:41:42.733Z,64.25
2019-03-24T23:44:13.060Z,64.34
2019-03-24T23:46:43.386Z,64.54
2019-03-24T23:49:13.807Z,64.62
2019-03-24T23:51:44.143Z,64.78
2019-03-24T23:54:14.409Z,64.96
2019-03-24T23:56:44.932Z,65.27
2019-03-24T23:59:15.316Z,65.58
